createdAt,value
2022-12-24T00:01:07.457Z,5.84
2022-12-24T00:03:35.332Z,5.86
2022-12-24T00:06:09.919Z,6.05
2022-12-24T00:08:42.477Z,6.11
2022-12-24T00:11:09.715Z,5.86
2022-12-24T00:13:37.063Z,5.92
2022-12-24T00:16:04.451Z,5.92
2022-12-24T00:18:31.778Z,5.90
2022-12-24T00:20:59.047Z,5.94
2022-12-24T00:23:26.212Z,5.87
2022-12-24T00:25:53.650Z,5.84
2022-12-24T00:28:21.611Z,5.89
2022-12-24T00:30:49.051Z,5.89
2022-12-24T00:33:22.359Z,5.91
2022-12-24T00:35:52.989Z,5.72
2022-12-24T00:38:20.396Z,5.82
2022-12-24T00:40:47.553Z,5.88
2022-12-24T00:43:14.768Z,5.96
2022-12-24T00:45:42.253Z,5.95
2022-12-24T00:48:09.442Z,5.86
2022-12-24T00:50:36.646Z,5.84
2022-12-24T00:53:05.025Z,5.79
2022-12-24T00:55:32.226Z,5.73
2022-12-24T00:57:59.386Z,5.78
2022-12-24T01:00:26.651Z,5.71
2022-12-24T01:02:54.418Z,5.64
2022-12-24T01:05:23.096Z,5.59
2022-12-24T01:07:53.994Z,5.60
2022-12-24T01:10:21.262Z,5.67
2022-12-24T01:12:48.485Z,5.63
2022-12-24T01:15:16.385Z,5.63
2022-12-24T01:17:43.638Z,5.61
2022-12-24T01:20:15.682Z,5.58
2022-12-24T01:22:42.956Z,5.59
2022-12-24T01:25:10.726Z,5.51
2022-12-24T01:27:38.078Z,5.53
2022-12-24T01:30:07.068Z,5.57
2022-12-24T01:32:34.539Z,5.55
2022-12-24T01:35:01.700Z,5.52
2022-12-24T01:37:28.880Z,5.49
2022-12-24T01:40:16.010Z,5.57
2022-12-24T01:43:04.362Z,5.55
2022-12-24T01:45:42.159Z,5.64
2022-12-24T01:48:44.305Z,5.52
2022-12-24T01:51:35.663Z,5.48
2022-12-24T01:54:08.017Z,5.57
2022-12-24T01:56:37.056Z,5.60
2022-12-24T01:59:08.599Z,5.59
2022-12-24T02:01:36.108Z,5.63
2022-12-24T02:04:13.906Z,5.61
2022-12-24T02:06:41.119Z,5.63
2022-12-24T02:09:08.392Z,5.59
2022-12-24T02:11:38.173Z,5.56
2022-12-24T02:14:05.447Z,5.66
2022-12-24T02:16:59.629Z,5.89
2022-12-24T02:19:58.116Z,5.59
2022-12-24T02:22:41.732Z,5.58
2022-12-24T02:25:25.166Z,5.69
2022-12-24T02:28:14.261Z,5.68
2022-12-24T02:30:52.135Z,5.84
2022-12-24T02:33:45.737Z,5.94
2022-12-24T02:36:20.462Z,6.01
2022-12-24T02:39:00.995Z,6.00
2022-12-24T02:41:59.949Z,5.96
2022-12-24T02:44:29.105Z,5.88
2022-12-24T02:46:57.922Z,5.93
2022-12-24T02:49:25.591Z,5.88
2022-12-24T02:51:52.931Z,5.83
2022-12-24T02:54:20.163Z,5.94
2022-12-24T02:56:54.204Z,6.00
2022-12-24T02:59:27.489Z,5.95
2022-12-24T03:02:33.388Z,5.89
2022-12-24T03:05:20.714Z,5.98
2022-12-24T03:08:17.223Z,5.98
2022-12-24T03:10:58.166Z,6.10
2022-12-24T03:13:26.569Z,6.22
2022-12-24T03:15:53.895Z,6.25
2022-12-24T03:18:24.835Z,6.13
2022-12-24T03:21:01.530Z,6.18
2022-12-24T03:23:28.798Z,6.27
2022-12-24T03:25:56.005Z,6.26
2022-12-24T03:28:26.407Z,6.10
2022-12-24T03:30:53.801Z,5.95
2022-12-24T03:33:21.260Z,5.99
2022-12-24T03:35:50.117Z,6.01
2022-12-24T03:38:17.315Z,6.04
2022-12-24T03:40:44.503Z,6.06
2022-12-24T03:43:11.663Z,6.00
2022-12-24T03:45:39.221Z,6.02
2022-12-24T03:48:06.497Z,5.98
2022-12-24T03:50:33.949Z,6.05
2022-12-24T03:53:01.101Z,6.08
2022-12-24T03:55:28.283Z,5.96
2022-12-24T03:57:55.428Z,6.12
2022-12-24T04:00:22.641Z,6.11
2022-12-24T04:02:49.969Z,6.15
2022-12-24T04:05:19.404Z,6.14
2022-12-24T04:07:46.679Z,6.08
2022-12-24T04:10:14.809Z,6.17
2022-12-24T04:12:41.999Z,6.24
2022-12-24T04:15:10.154Z,6.29
2022-12-24T04:17:37.612Z,6.32
2022-12-24T04:20:05.354Z,6.38
2022-12-24T04:22:32.616Z,6.46
2022-12-24T04:24:59.946Z,6.29
2022-12-24T04:27:30.552Z,6.38
2022-12-24T04:29:58.881Z,6.25
2022-12-24T04:32:29.447Z,6.25
2022-12-24T04:34:56.744Z,6.31
2022-12-24T04:37:23.900Z,6.39
2022-12-24T04:39:51.097Z,6.44
2022-12-24T04:42:18.266Z,6.46
2022-12-24T04:44:45.454Z,6.41
2022-12-24T04:47:12.725Z,6.40
2022-12-24T04:49:39.919Z,6.48
2022-12-24T04:52:07.168Z,6.47
2022-12-24T04:54:34.410Z,6.42
2022-12-24T04:57:01.629Z,6.25
2022-12-24T04:59:29.001Z,6.22
2022-12-24T05:01:56.403Z,6.26
2022-12-24T05:04:23.702Z,6.29
2022-12-24T05:06:50.865Z,6.23
2022-12-24T05:09:18.107Z,6.24
2022-12-24T05:11:45.256Z,6.26
2022-12-24T05:14:12.594Z,6.14
2022-12-24T05:16:39.826Z,6.15
2022-12-24T05:19:07.156Z,6.14
2022-12-24T05:21:34.365Z,6.07
2022-12-24T05:24:20.077Z,5.99
2022-12-24T05:26:50.087Z,6.07
2022-12-24T05:29:17.243Z,6.24
2022-12-24T05:31:45.203Z,6.32
2022-12-24T05:34:13.795Z,6.30
2022-12-24T05:36:41.159Z,6.15
2022-12-24T05:39:15.422Z,6.06
2022-12-24T05:41:43.412Z,6.09
2022-12-24T05:44:10.706Z,6.15
2022-12-24T05:46:37.945Z,6.05
2022-12-24T05:49:05.222Z,6.00
2022-12-24T05:51:32.409Z,6.02
2022-12-24T05:53:59.628Z,6.23
2022-12-24T05:56:26.931Z,6.34
2022-12-24T05:58:54.850Z,6.37
2022-12-24T06:01:22.937Z,6.28
2022-12-24T06:03:50.746Z,6.18
2022-12-24T06:06:23.539Z,6.10
2022-12-24T06:08:51.639Z,6.11
2022-12-24T06:11:24.782Z,6.16
2022-12-24T06:13:53.156Z,6.10
2022-12-24T06:16:21.137Z,6.14
2022-12-24T06:18:48.403Z,6.03
2022-12-24T06:21:16.146Z,5.97
2022-12-24T06:23:44.559Z,6.14
2022-12-24T06:26:17.493Z,6.25
2022-12-24T06:28:45.177Z,6.30
2022-12-24T06:31:17.934Z,6.26
2022-12-24T06:33:45.450Z,6.19
2022-12-24T06:36:21.416Z,6.30
2022-12-24T06:38:49.088Z,6.34
2022-12-24T06:41:17.398Z,6.38
2022-12-24T06:43:46.101Z,6.32
2022-12-24T06:46:13.760Z,6.26
2022-12-24T06:48:41.280Z,6.17
2022-12-24T06:51:08.902Z,6.27
2022-12-24T06:53:36.602Z,6.15
2022-12-24T06:56:12.529Z,6.12
2022-12-24T06:58:41.193Z,6.16
2022-12-24T07:01:11.071Z,6.03
2022-12-24T07:03:38.709Z,6.01
2022-12-24T07:06:06.364Z,6.01
2022-12-24T07:08:36.285Z,5.95
2022-12-24T07:11:03.713Z,6.06
2022-12-24T07:13:33.077Z,6.13
2022-12-24T07:16:05.118Z,6.14
2022-12-24T07:18:32.917Z,6.13
2022-12-24T07:21:01.112Z,6.07
2022-12-24T07:23:28.927Z,6.18
2022-12-24T07:25:56.174Z,6.24
2022-12-24T07:28:27.765Z,6.33
2022-12-24T07:30:56.483Z,6.35
2022-12-24T07:33:24.680Z,6.40
2022-12-24T07:36:02.619Z,6.45
2022-12-24T07:38:30.181Z,6.50
2022-12-24T07:40:58.348Z,6.41
2022-12-24T07:43:26.362Z,6.39
2022-12-24T07:45:59.388Z,6.34
2022-12-24T07:48:28.020Z,6.20
2022-12-24T07:50:57.835Z,6.20
2022-12-24T07:53:26.501Z,6.19
2022-12-24T07:55:54.040Z,6.27
2022-12-24T07:58:21.793Z,6.30
2022-12-24T08:00:49.156Z,6.14
2022-12-24T08:03:21.722Z,6.22
2022-12-24T08:05:49.667Z,6.28
2022-12-24T08:08:16.853Z,6.31
2022-12-24T08:10:45.348Z,6.40
2022-12-24T08:13:13.079Z,6.46
2022-12-24T08:15:40.339Z,6.49
2022-12-24T08:18:12.618Z,6.57
2022-12-24T08:20:40.903Z,6.60
2022-12-24T08:23:08.985Z,6.63
2022-12-24T08:25:36.381Z,6.66
2022-12-24T08:28:04.205Z,6.67
2022-12-24T08:30:31.614Z,6.60
2022-12-24T08:32:58.846Z,6.66
2022-12-24T08:35:26.048Z,6.65
2022-12-24T08:37:53.208Z,6.69
2022-12-24T08:40:20.576Z,6.76
2022-12-24T08:42:47.790Z,6.78
2022-12-24T08:45:15.052Z,6.87
2022-12-24T08:47:43.501Z,6.90
2022-12-24T08:50:11.595Z,6.95
2022-12-24T08:52:38.782Z,6.99
2022-12-24T08:55:06.522Z,7.09
2022-12-24T08:57:37.202Z,7.12
2022-12-24T09:00:06.180Z,7.14
2022-12-24T09:02:33.511Z,7.14
2022-12-24T09:05:09.147Z,7.18
2022-12-24T09:07:38.159Z,7.19
2022-12-24T09:10:06.383Z,7.20
2022-12-24T09:12:34.022Z,7.10
2022-12-24T09:15:04.220Z,7.20
2022-12-24T09:17:31.810Z,7.17
2022-12-24T09:19:58.973Z,7.29
2022-12-24T09:22:28.462Z,7.38
2022-12-24T09:24:56.000Z,7.40
2022-12-24T09:27:23.480Z,7.34
2022-12-24T09:29:53.045Z,7.42
2022-12-24T09:32:20.300Z,7.36
2022-12-24T09:34:47.549Z,7.30
2022-12-24T09:37:16.369Z,7.34
2022-12-24T09:39:43.980Z,7.38
2022-12-24T09:42:27.124Z,7.51
2022-12-24T09:45:08.330Z,7.47
2022-12-24T09:47:55.809Z,7.45
2022-12-24T09:50:32.569Z,7.50
2022-12-24T09:53:03.228Z,7.60
2022-12-24T09:55:41.067Z,7.57
2022-12-24T09:58:10.845Z,7.58
2022-12-24T10:00:38.579Z,7.65
2022-12-24T10:03:18.880Z,7.58
2022-12-24T10:05:52.725Z,7.60
2022-12-24T10:08:47.781Z,7.66
2022-12-24T10:11:28.013Z,7.73
2022-12-24T10:14:11.578Z,7.63
2022-12-24T10:16:49.682Z,7.70
2022-12-24T10:19:38.858Z,7.75
2022-12-24T10:22:08.296Z,7.80
2022-12-24T10:24:39.334Z,7.78
2022-12-24T10:27:16.001Z,7.74
2022-12-24T10:29:48.068Z,7.73
2022-12-24T10:32:31.696Z,7.86
2022-12-24T10:35:02.243Z,7.82
2022-12-24T10:37:30.809Z,7.77
2022-12-24T10:39:59.449Z,7.80
2022-12-24T10:42:36.926Z,7.87
2022-12-24T10:45:06.864Z,7.98
2022-12-24T10:47:38.228Z,8.02
2022-12-24T10:50:23.989Z,8.08
2022-12-24T10:52:52.091Z,8.16
2022-12-24T10:55:28.228Z,8.10
2022-12-24T10:58:04.548Z,8.16
2022-12-24T11:00:36.185Z,8.25
2022-12-24T11:03:12.992Z,8.43
2022-12-24T11:05:45.779Z,8.50
2022-12-24T11:08:12.969Z,8.59
2022-12-24T11:10:45.553Z,8.77
2022-12-24T11:13:38.549Z,8.85
2022-12-24T11:16:10.358Z,8.78
2022-12-24T11:18:50.444Z,8.76
2022-12-24T11:21:36.438Z,8.68
2022-12-24T11:24:14.160Z,8.63
2022-12-24T11:26:42.956Z,8.82
2022-12-24T11:29:21.586Z,8.87
2022-12-24T11:31:49.513Z,8.96
2022-12-24T11:34:32.928Z,9.02
2022-12-24T11:37:21.602Z,9.13
2022-12-24T11:39:58.402Z,9.12
2022-12-24T11:42:40.814Z,9.19
2022-12-24T11:45:26.126Z,9.24
2022-12-24T11:47:54.161Z,9.27
2022-12-24T11:50:35.657Z,9.29
2022-12-24T11:53:17.736Z,9.22
2022-12-24T11:55:55.163Z,9.14
2022-12-24T11:58:52.722Z,9.10
2022-12-24T12:01:31.068Z,9.07
2022-12-24T12:04:19.174Z,9.06
2022-12-24T12:06:52.900Z,9.06
2022-12-24T12:09:31.395Z,9.13
2022-12-24T12:12:07.080Z,9.10
2022-12-24T12:14:48.701Z,8.91
2022-12-24T12:17:41.317Z,8.86
2022-12-24T12:20:34.163Z,8.80
2022-12-24T12:23:41.374Z,8.79
2022-12-24T12:26:19.030Z,8.85
2022-12-24T12:29:24.382Z,8.92
2022-12-24T12:31:59.506Z,8.96
2022-12-24T12:34:34.232Z,9.05
2022-12-24T12:37:24.943Z,9.14
2022-12-24T12:39:52.196Z,9.14
2022-12-24T12:42:34.457Z,9.10
2022-12-24T12:45:49.780Z,9.07
2022-12-24T12:48:35.322Z,9.06
2022-12-24T12:51:26.102Z,9.09
2022-12-24T12:57:42.486Z,9.11
2022-12-24T13:00:12.723Z,9.20
2022-12-24T13:03:07.586Z,9.22
2022-12-24T13:06:02.124Z,9.14
2022-12-24T13:08:41.487Z,9.06
2022-12-24T13:11:40.380Z,9.13
2022-12-24T13:14:46.330Z,9.07
2022-12-24T13:17:54.575Z,9.12
2022-12-24T13:24:16.514Z,9.14
2022-12-24T13:26:56.675Z,9.24
2022-12-24T13:30:15.761Z,9.23
2022-12-24T13:32:52.417Z,9.13
2022-12-24T13:35:19.845Z,8.90
2022-12-24T13:38:17.426Z,8.85
2022-12-24T13:40:44.985Z,8.70
2022-12-24T13:44:02.459Z,8.69
2022-12-24T13:46:50.083Z,8.60
2022-12-24T13:49:21.220Z,8.50
2022-12-24T13:51:52.559Z,8.45
2022-12-24T14:01:57.459Z,8.24
2022-12-24T14:08:29.169Z,8.11
2022-12-24T14:11:22.875Z,8.11
2022-12-24T14:13:55.436Z,8.09
2022-12-24T14:16:25.128Z,8.04
2022-12-24T14:22:45.646Z,7.92
2022-12-24T14:25:21.506Z,7.94
2022-12-24T14:27:54.957Z,7.90
2022-12-24T14:30:27.585Z,7.88
2022-12-24T14:35:40.457Z,7.78
2022-12-24T14:38:14.116Z,7.74
2022-12-24T14:41:12.083Z,7.70
2022-12-24T14:44:20.606Z,7.62
2022-12-24T14:46:58.868Z,7.61
2022-12-24T14:49:59.266Z,7.58
2022-12-24T14:53:03.372Z,7.50
2022-12-24T14:55:36.031Z,7.43
2022-12-24T14:58:26.657Z,7.42
2022-12-24T15:01:02.341Z,7.34
2022-12-24T15:03:39.888Z,7.31
2022-12-24T15:06:17.643Z,7.28
2022-12-24T15:08:47.625Z,7.22
2022-12-24T15:11:21.236Z,7.19
2022-12-24T15:13:56.228Z,7.16
2022-12-24T15:20:07.461Z,7.41
2022-12-24T15:27:53.296Z,7.70
2022-12-24T15:30:30.593Z,7.69
2022-12-24T15:42:18.954Z,7.45
2022-12-24T15:45:08.307Z,7.49
2022-12-24T15:47:48.489Z,7.49
2022-12-24T15:54:03.119Z,7.41
2022-12-24T15:56:33.295Z,7.35
2022-12-24T16:10:28.337Z,7.18
2022-12-24T16:16:46.965Z,7.28
2022-12-24T16:19:23.263Z,7.34
2022-12-24T16:32:34.035Z,7.51
2022-12-24T16:35:03.245Z,7.49
2022-12-24T16:37:30.600Z,7.51
2022-12-24T16:39:59.329Z,7.47
2022-12-24T16:42:45.755Z,7.41
2022-12-24T16:45:13.136Z,7.34
2022-12-24T16:47:43.377Z,7.24
2022-12-24T16:50:16.813Z,7.29
2022-12-24T16:52:44.602Z,7.14
2022-12-24T16:55:17.920Z,7.08
2022-12-24T16:57:51.096Z,7.11
2022-12-24T17:00:21.574Z,7.05
2022-12-24T17:02:49.757Z,7.05
2022-12-24T17:05:17.490Z,7.03
2022-12-24T17:07:50.354Z,6.97
2022-12-24T17:10:17.787Z,7.06
2022-12-24T17:12:45.053Z,7.11
2022-12-24T17:15:12.703Z,7.16
2022-12-24T17:17:39.988Z,7.14
2022-12-24T17:20:09.517Z,7.13
2022-12-24T17:22:39.488Z,7.20
2022-12-24T17:25:07.672Z,7.26
2022-12-24T17:27:34.904Z,7.30
2022-12-24T17:30:02.484Z,7.36
2022-12-24T17:32:29.772Z,7.38
2022-12-24T17:41:56.214Z,7.52
2022-12-24T17:44:23.876Z,7.66
2022-12-24T17:46:51.149Z,7.76
2022-12-24T17:49:18.423Z,7.82
2022-12-24T17:51:46.687Z,7.84
2022-12-24T17:54:14.315Z,8.03
2022-12-24T17:56:41.542Z,8.04
2022-12-24T17:59:08.890Z,8.07
2022-12-24T18:01:36.240Z,8.11
2022-12-24T18:04:04.036Z,8.10
2022-12-24T18:06:31.524Z,8.14
2022-12-24T18:08:58.886Z,8.15
2022-12-24T18:11:29.180Z,8.13
2022-12-24T18:13:57.447Z,8.12
2022-12-24T18:16:25.604Z,8.14
2022-12-24T18:18:53.047Z,8.17
2022-12-24T18:21:23.483Z,8.20
2022-12-24T18:23:52.308Z,8.21
2022-12-24T18:26:20.280Z,8.07
2022-12-24T18:28:47.773Z,8.13
2022-12-24T18:31:18.108Z,8.12
2022-12-24T18:33:47.524Z,8.16
2022-12-24T18:36:15.119Z,8.13
2022-12-24T18:38:42.318Z,8.07
2022-12-24T18:41:15.838Z,8.04
2022-12-24T18:43:43.133Z,7.83
2022-12-24T18:46:15.900Z,7.77
2022-12-24T18:48:43.318Z,7.73
2022-12-24T18:51:10.680Z,7.59
2022-12-24T18:53:38.389Z,7.51
2022-12-24T18:56:16.071Z,7.38
2022-12-24T18:58:43.829Z,7.37
2022-12-24T19:01:16.671Z,7.38
2022-12-24T19:03:44.041Z,7.33
2022-12-24T19:06:11.338Z,7.34
2022-12-24T19:11:26.581Z,7.32
2022-12-24T19:13:53.914Z,7.34
2022-12-24T19:16:21.466Z,7.37
2022-12-24T19:18:49.004Z,7.45
2022-12-24T19:21:17.673Z,7.50
2022-12-24T19:23:45.355Z,7.52
2022-12-24T19:26:14.293Z,7.53
2022-12-24T19:28:41.497Z,7.51
2022-12-24T19:31:13.316Z,7.46
2022-12-24T19:33:43.676Z,7.39
2022-12-24T19:36:15.076Z,7.33
2022-12-24T19:38:42.801Z,7.34
2022-12-24T19:41:15.750Z,7.39
2022-12-24T19:43:48.028Z,7.45
2022-12-24T19:46:19.860Z,7.46
2022-12-24T19:48:52.403Z,7.47
2022-12-24T19:51:21.347Z,7.45
2022-12-24T19:53:49.215Z,7.47
2022-12-24T19:56:18.113Z,7.48
2022-12-24T19:58:45.785Z,7.55
2022-12-24T20:01:16.203Z,7.59
2022-12-24T20:03:44.586Z,7.62
2022-12-24T20:06:12.748Z,7.62
2022-12-24T20:08:40.321Z,7.67
2022-12-24T20:11:15.433Z,7.76
2022-12-24T20:13:43.022Z,7.77
2022-12-24T20:16:15.771Z,7.77
2022-12-24T20:18:43.027Z,7.76
2022-12-24T20:21:11.996Z,7.70
2022-12-24T20:23:40.352Z,7.65
2022-12-24T20:26:10.401Z,7.53
2022-12-24T20:28:37.731Z,7.43
2022-12-24T20:31:17.224Z,7.36
2022-12-24T20:33:45.077Z,7.23
2022-12-24T20:36:13.982Z,7.22
2022-12-24T20:38:41.356Z,7.21
2022-12-24T20:41:12.292Z,7.24
2022-12-24T20:43:47.396Z,7.29
2022-12-24T20:46:16.553Z,7.30
2022-12-24T20:48:45.166Z,7.31
2022-12-24T20:51:23.687Z,7.37
2022-12-24T20:53:55.194Z,7.38
2022-12-24T20:56:37.804Z,7.42
2022-12-24T20:59:05.323Z,7.41
2022-12-24T21:01:34.311Z,7.42
2022-12-24T21:04:04.848Z,7.48
2022-12-24T21:06:32.863Z,7.45
2022-12-24T21:09:00.762Z,7.42
2022-12-24T21:11:46.710Z,7.43
2022-12-24T21:14:16.573Z,7.47
2022-12-24T21:16:44.775Z,7.52
2022-12-24T21:19:18.658Z,7.55
2022-12-24T21:21:47.201Z,7.53
2022-12-24T21:24:14.927Z,7.54
2022-12-24T21:26:43.586Z,7.57
2022-12-24T21:29:11.169Z,7.54
2022-12-24T21:31:38.596Z,7.50
2022-12-24T21:34:06.088Z,7.51
2022-12-24T21:36:33.458Z,7.53
2022-12-24T21:39:00.628Z,7.52
2022-12-24T21:41:28.075Z,7.53
2022-12-24T21:43:55.491Z,7.49
2022-12-24T21:46:25.268Z,7.50
2022-12-24T21:49:13.384Z,7.54
2022-12-24T21:51:41.407Z,7.51
2022-12-24T21:54:23.932Z,7.47
2022-12-24T21:57:11.137Z,7.47
2022-12-24T21:59:38.583Z,7.44
2022-12-24T22:02:05.920Z,7.42
2022-12-24T22:04:33.557Z,7.41
2022-12-24T22:07:19.405Z,7.44
2022-12-24T22:10:05.406Z,7.46
2022-12-24T22:12:33.623Z,7.46
2022-12-24T22:15:00.842Z,7.44
2022-12-24T22:17:30.849Z,7.46
2022-12-24T22:19:58.127Z,7.53
2022-12-24T22:22:26.884Z,7.51
2022-12-24T22:24:54.173Z,7.48
2022-12-24T22:27:21.584Z,7.42
2022-12-24T22:29:49.240Z,7.44
2022-12-24T22:32:16.507Z,7.32
2022-12-24T22:34:43.739Z,7.42
2022-12-24T22:37:11.102Z,7.38
2022-12-24T22:39:39.126Z,7.30
2022-12-24T22:42:06.557Z,7.11
2022-12-24T22:44:33.876Z,7.01
2022-12-24T22:47:01.180Z,6.89
2022-12-24T22:49:28.482Z,6.86
2022-12-24T22:51:58.007Z,6.79
2022-12-24T22:54:25.392Z,6.76
2022-12-24T22:56:52.659Z,6.66
2022-12-24T22:59:20.145Z,6.66
2022-12-24T23:01:48.398Z,6.53
2022-12-24T23:04:15.973Z,6.45
2022-12-24T23:06:44.562Z,6.47
2022-12-24T23:09:13.821Z,6.40
2022-12-24T23:11:41.605Z,6.42
2022-12-24T23:14:35.240Z,6.38
2022-12-24T23:17:02.781Z,6.29
2022-12-24T23:19:32.122Z,6.28
2022-12-24T23:22:47.586Z,6.29
2022-12-24T23:25:22.211Z,6.16
2022-12-24T23:28:11.102Z,6.15
2022-12-24T23:31:00.194Z,6.15
2022-12-24T23:33:28.290Z,6.10
2022-12-24T23:35:55.514Z,6.07
2022-12-24T23:38:24.827Z,6.01
2022-12-24T23:40:55.831Z,5.97
2022-12-24T23:43:23.089Z,5.88
2022-12-24T23:45:51.126Z,5.86
2022-12-24T23:48:18.712Z,5.83
2022-12-24T23:50:46.599Z,5.79
2022-12-24T23:53:14.626Z,5.77
2022-12-24T23:55:42.589Z,5.76
2022-12-24T23:58:14.424Z,5.69
